Shepetivka, Ukraine
Current Conditions -  °F | °C
As of 6:00 PM on Monday 24 Nov 2014 (Local Time) from UKLR Reporting Station
Haze Haze  
Wind Chill: 21°   Ceiling: 1000
Heat Index: 30°   Visibility: 3mi
Dew Point: 27°   Wind: 11mph
Humidity: 86%   Direction: 170°S
Pressure: 30.48"   Gusts: NA
Location:  50.18°N, 27.07°E
Report Text: UKLR 241500Z 17005MPS 140V200 4800 BR OVC010 M01/M03 Q1032 1272//38 NOSIG
Loading
Personal Weather Stations






























Interactive Weather Map New forecast layout! Learn more

10-Day Weather Forecast

Advertisements
Track Severe Weather on mobile